sensor_id;sensor_type;location;lat;lon;timestamp;P1;durP1;ratioP1;P2;durP2;ratioP2
14139;SDS011;7150;53.514;9.988;2023-04-10T00:01:31;28.77;;;14.10;;
14139;SDS011;7150;53.514;9.988;2023-04-10T00:03:59;25.30;;;15.07;;
14139;SDS011;7150;53.514;9.988;2023-04-10T00:06:28;24.33;;;13.67;;
14139;SDS011;7150;53.514;9.988;2023-04-10T00:08:55;22.23;;;14.40;;
14139;SDS011;7150;53.514;9.988;2023-04-10T00:11:21;22.87;;;14.10;;
14139;SDS011;7150;53.514;9.988;2023-04-10T00:13:47;24.77;;;14.77;;
14139;SDS011;7150;53.514;9.988;2023-04-10T00:16:12;23.50;;;14.33;;
14139;SDS011;7150;53.514;9.988;2023-04-10T00:18:38;24.60;;;13.97;;
14139;SDS011;7150;53.514;9.988;2023-04-10T00:21:03;25.40;;;15.70;;
14139;SDS011;7150;53.514;9.988;2023-04-10T00:23:29;27.67;;;16.17;;
14139;SDS011;7150;53.514;9.988;2023-04-10T00:25:58;27.13;;;15.10;;
14139;SDS011;7150;53.514;9.988;2023-04-10T00:28:25;26.77;;;15.37;;
14139;SDS011;7150;53.514;9.988;2023-04-10T00:30:50;21.73;;;13.00;;
14139;SDS011;7150;53.514;9.988;2023-04-10T00:33:16;27.00;;;15.67;;
14139;SDS011;7150;53.514;9.988;2023-04-10T00:35:41;27.60;;;15.30;;
14139;SDS011;7150;53.514;9.988;2023-04-10T00:38:07;30.47;;;17.43;;
14139;SDS011;7150;53.514;9.988;2023-04-10T00:40:32;24.60;;;14.83;;
14139;SDS011;7150;53.514;9.988;2023-04-10T00:42:58;25.23;;;14.33;;
14139;SDS011;7150;53.514;9.988;2023-04-10T00:45:23;26.47;;;15.17;;
14139;SDS011;7150;53.514;9.988;2023-04-10T00:47:49;24.73;;;15.30;;
14139;SDS011;7150;53.514;9.988;2023-04-10T00:50:15;25.03;;;14.53;;
14139;SDS011;7150;53.514;9.988;2023-04-10T00:52:41;24.47;;;14.53;;
14139;SDS011;7150;53.514;9.988;2023-04-10T00:55:07;23.07;;;13.97;;
14139;SDS011;7150;53.514;9.988;2023-04-10T00:57:34;26.23;;;14.77;;
14139;SDS011;7150;53.514;9.988;2023-04-10T01:00:00;29.13;;;14.83;;
14139;SDS011;7150;53.514;9.988;2023-04-10T01:02:26;24.33;;;13.27;;
14139;SDS011;7150;53.514;9.988;2023-04-10T01:04:51;26.17;;;16.23;;
14139;SDS011;7150;53.514;9.988;2023-04-10T01:07:26;24.07;;;13.83;;
14139;SDS011;7150;53.514;9.988;2023-04-10T01:10:12;25.83;;;15.27;;
14139;SDS011;7150;53.514;9.988;2023-04-10T01:15:41;25.33;;;14.17;;
14139;SDS011;7150;53.514;9.988;2023-04-10T01:18:21;25.23;;;14.83;;
14139;SDS011;7150;53.514;9.988;2023-04-10T01:20:53;25.37;;;13.97;;
14139;SDS011;7150;53.514;9.988;2023-04-10T01:23:25;25.10;;;14.10;;
14139;SDS011;7150;53.514;9.988;2023-04-10T01:26:15;24.60;;;14.07;;
14139;SDS011;7150;53.514;9.988;2023-04-10T01:28:53;22.27;;;13.70;;
14139;SDS011;7150;53.514;9.988;2023-04-10T01:31:26;24.73;;;13.97;;
14139;SDS011;7150;53.514;9.988;2023-04-10T01:34:06;24.37;;;14.60;;
14139;SDS011;7150;53.514;9.988;2023-04-10T01:36:54;24.57;;;15.13;;
14139;SDS011;7150;53.514;9.988;2023-04-10T01:39:26;22.47;;;13.33;;
14139;SDS011;7150;53.514;9.988;2023-04-10T01:41:54;25.93;;;14.50;;
14139;SDS011;7150;53.514;9.988;2023-04-10T01:44:22;22.37;;;13.10;;
14139;SDS011;7150;53.514;9.988;2023-04-10T01:46:51;24.27;;;13.63;;
14139;SDS011;7150;53.514;9.988;2023-04-10T01:49:18;26.40;;;13.77;;
14139;SDS011;7150;53.514;9.988;2023-04-10T01:51:44;22.30;;;13.63;;
14139;SDS011;7150;53.514;9.988;2023-04-10T01:54:11;24.43;;;13.70;;
14139;SDS011;7150;53.514;9.988;2023-04-10T01:56:37;25.50;;;14.20;;
14139;SDS011;7150;53.514;9.988;2023-04-10T01:59:03;21.50;;;12.80;;
14139;SDS011;7150;53.514;9.988;2023-04-10T02:01:29;25.00;;;13.57;;
14139;SDS011;7150;53.514;9.988;2023-04-10T02:03:55;23.83;;;13.73;;
14139;SDS011;7150;53.514;9.988;2023-04-10T02:09:09;22.50;;;12.90;;
14139;SDS011;7150;53.514;9.988;2023-04-10T02:11:50;23.67;;;13.20;;
14139;SDS011;7150;53.514;9.988;2023-04-10T02:14:20;24.43;;;14.40;;
14139;SDS011;7150;53.514;9.988;2023-04-10T02:16:48;23.83;;;13.03;;
14139;SDS011;7150;53.514;9.988;2023-04-10T02:19:18;21.53;;;12.67;;
14139;SDS011;7150;53.514;9.988;2023-04-10T02:21:44;22.87;;;13.13;;
14139;SDS011;7150;53.514;9.988;2023-04-10T02:24:11;23.17;;;13.53;;
14139;SDS011;7150;53.514;9.988;2023-04-10T02:26:46;22.33;;;12.93;;
14139;SDS011;7150;53.514;9.988;2023-04-10T02:29:13;24.43;;;13.87;;
14139;SDS011;7150;53.514;9.988;2023-04-10T02:31:39;25.87;;;14.43;;
14139;SDS011;7150;53.514;9.988;2023-04-10T02:34:05;25.67;;;12.77;;
14139;SDS011;7150;53.514;9.988;2023-04-10T02:36:31;25.83;;;15.10;;
14139;SDS011;7150;53.514;9.988;2023-04-10T02:38:58;23.50;;;13.10;;
14139;SDS011;7150;53.514;9.988;2023-04-10T02:41:23;22.77;;;13.60;;
14139;SDS011;7150;53.514;9.988;2023-04-10T02:43:49;22.03;;;12.20;;
14139;SDS011;7150;53.514;9.988;2023-04-10T02:46:14;24.03;;;13.97;;
14139;SDS011;7150;53.514;9.988;2023-04-10T02:48:40;25.53;;;12.37;;
14139;SDS011;7150;53.514;9.988;2023-04-10T02:51:05;23.73;;;13.90;;
14139;SDS011;7150;53.514;9.988;2023-04-10T02:53:32;25.27;;;14.37;;
14139;SDS011;7150;53.514;9.988;2023-04-10T02:55:58;26.53;;;14.53;;
14139;SDS011;7150;53.514;9.988;2023-04-10T02:58:24;23.23;;;13.20;;
14139;SDS011;7150;53.514;9.988;2023-04-10T03:00:50;23.70;;;13.30;;
14139;SDS011;7150;53.514;9.988;2023-04-10T03:03:17;25.93;;;14.33;;
14139;SDS011;7150;53.514;9.988;2023-04-10T03:05:43;25.00;;;13.37;;
14139;SDS011;7150;53.514;9.988;2023-04-10T03:08:11;25.63;;;14.10;;
14139;SDS011;7150;53.514;9.988;2023-04-10T03:10:37;26.57;;;13.70;;
14139;SDS011;7150;53.514;9.988;2023-04-10T03:13:03;27.00;;;15.10;;
14139;SDS011;7150;53.514;9.988;2023-04-10T03:15:28;22.90;;;14.10;;
14139;SDS011;7150;53.514;9.988;2023-04-10T03:17:54;26.13;;;14.77;;
14139;SDS011;7150;53.514;9.988;2023-04-10T03:20:20;24.20;;;13.17;;
14139;SDS011;7150;53.514;9.988;2023-04-10T03:22:45;23.13;;;13.63;;
14139;SDS011;7150;53.514;9.988;2023-04-10T03:25:11;24.83;;;13.83;;
14139;SDS011;7150;53.514;9.988;2023-04-10T03:27:37;26.10;;;15.03;;
14139;SDS011;7150;53.514;9.988;2023-04-10T03:30:02;23.17;;;13.83;;
14139;SDS011;7150;53.514;9.988;2023-04-10T03:32:28;23.33;;;12.53;;
14139;SDS011;7150;53.514;9.988;2023-04-10T03:34:56;25.23;;;13.70;;
14139;SDS011;7150;53.514;9.988;2023-04-10T03:37:22;24.23;;;13.60;;
14139;SDS011;7150;53.514;9.988;2023-04-10T03:39:48;23.27;;;13.67;;
14139;SDS011;7150;53.514;9.988;2023-04-10T03:42:13;25.63;;;13.57;;
14139;SDS011;7150;53.514;9.988;2023-04-10T03:44:39;23.83;;;13.90;;
14139;SDS011;7150;53.514;9.988;2023-04-10T03:47:04;25.43;;;14.60;;
14139;SDS011;7150;53.514;9.988;2023-04-10T03:49:30;22.77;;;13.60;;
14139;SDS011;7150;53.514;9.988;2023-04-10T03:51:55;24.13;;;14.00;;
14139;SDS011;7150;53.514;9.988;2023-04-10T03:54:21;22.00;;;13.13;;
14139;SDS011;7150;53.514;9.988;2023-04-10T03:56:46;25.70;;;13.60;;
14139;SDS011;7150;53.514;9.988;2023-04-10T03:59:12;23.23;;;14.53;;
14139;SDS011;7150;53.514;9.988;2023-04-10T04:01:37;25.97;;;13.23;;
14139;SDS011;7150;53.514;9.988;2023-04-10T04:04:03;26.10;;;13.90;;
14139;SDS011;7150;53.514;9.988;2023-04-10T04:06:29;24.20;;;13.43;;
14139;SDS011;7150;53.514;9.988;2023-04-10T04:08:55;21.73;;;12.00;;
14139;SDS011;7150;53.514;9.988;2023-04-10T04:11:21;24.47;;;13.47;;
14139;SDS011;7150;53.514;9.988;2023-04-10T04:13:47;21.57;;;13.50;;
14139;SDS011;7150;53.514;9.988;2023-04-10T04:16:12;28.17;;;16.53;;
14139;SDS011;7150;53.514;9.988;2023-04-10T04:18:38;25.97;;;14.50;;
14139;SDS011;7150;53.514;9.988;2023-04-10T04:21:03;26.17;;;13.93;;
14139;SDS011;7150;53.514;9.988;2023-04-10T04:23:29;32.67;;;13.80;;
14139;SDS011;7150;53.514;9.988;2023-04-10T04:25:54;25.33;;;14.13;;
14139;SDS011;7150;53.514;9.988;2023-04-10T04:28:21;23.77;;;12.97;;
14139;SDS011;7150;53.514;9.988;2023-04-10T04:30:47;22.20;;;13.60;;
14139;SDS011;7150;53.514;9.988;2023-04-10T04:33:12;26.60;;;14.87;;
14139;SDS011;7150;53.514;9.988;2023-04-10T04:35:38;26.50;;;14.60;;
14139;SDS011;7150;53.514;9.988;2023-04-10T04:38:03;23.27;;;13.77;;
14139;SDS011;7150;53.514;9.988;2023-04-10T04:40:29;25.60;;;14.17;;
14139;SDS011;7150;53.514;9.988;2023-04-10T04:42:55;22.60;;;12.60;;
14139;SDS011;7150;53.514;9.988;2023-04-10T04:45:20;25.73;;;14.67;;
14139;SDS011;7150;53.514;9.988;2023-04-10T04:47:46;25.53;;;13.63;;
14139;SDS011;7150;53.514;9.988;2023-04-10T04:50:11;24.13;;;14.03;;
14139;SDS011;7150;53.514;9.988;2023-04-10T04:52:37;24.43;;;13.43;;
14139;SDS011;7150;53.514;9.988;2023-04-10T04:55:03;22.10;;;13.40;;
14139;SDS011;7150;53.514;9.988;2023-04-10T04:57:28;25.63;;;13.50;;
14139;SDS011;7150;53.514;9.988;2023-04-10T04:59:55;23.00;;;13.07;;
14139;SDS011;7150;53.514;9.988;2023-04-10T05:02:20;24.93;;;13.83;;
14139;SDS011;7150;53.514;9.988;2023-04-10T05:04:46;25.47;;;13.83;;
14139;SDS011;7150;53.514;9.988;2023-04-10T05:07:12;24.70;;;15.00;;
14139;SDS011;7150;53.514;9.988;2023-04-10T05:09:38;23.57;;;13.73;;
14139;SDS011;7150;53.514;9.988;2023-04-10T05:12:03;26.70;;;13.97;;
14139;SDS011;7150;53.514;9.988;2023-04-10T05:14:29;24.43;;;13.23;;
14139;SDS011;7150;53.514;9.988;2023-04-10T05:16:54;27.07;;;14.07;;
14139;SDS011;7150;53.514;9.988;2023-04-10T05:19:20;24.10;;;14.30;;
14139;SDS011;7150;53.514;9.988;2023-04-10T05:21:45;25.03;;;13.83;;
14139;SDS011;7150;53.514;9.988;2023-04-10T05:24:11;25.50;;;15.10;;
14139;SDS011;7150;53.514;9.988;2023-04-10T05:26:36;26.57;;;14.23;;
14139;SDS011;7150;53.514;9.988;2023-04-10T05:29:02;28.93;;;15.67;;
14139;SDS011;7150;53.514;9.988;2023-04-10T05:31:28;26.30;;;14.83;;
14139;SDS011;7150;53.514;9.988;2023-04-10T05:33:53;26.80;;;14.83;;
14139;SDS011;7150;53.514;9.988;2023-04-10T05:36:19;25.90;;;15.17;;
14139;SDS011;7150;53.514;9.988;2023-04-10T05:38:44;27.27;;;13.57;;
14139;SDS011;7150;53.514;9.988;2023-04-10T05:41:10;25.90;;;13.57;;
14139;SDS011;7150;53.514;9.988;2023-04-10T05:43:35;25.80;;;13.33;;
14139;SDS011;7150;53.514;9.988;2023-04-10T05:46:01;24.47;;;13.40;;
14139;SDS011;7150;53.514;9.988;2023-04-10T05:48:26;25.03;;;14.37;;
14139;SDS011;7150;53.514;9.988;2023-04-10T05:50:52;26.90;;;14.17;;
14139;SDS011;7150;53.514;9.988;2023-04-10T05:53:18;27.20;;;14.27;;
14139;SDS011;7150;53.514;9.988;2023-04-10T05:55:48;23.20;;;13.20;;
14139;SDS011;7150;53.514;9.988;2023-04-10T05:58:15;23.83;;;12.73;;
14139;SDS011;7150;53.514;9.988;2023-04-10T06:00:40;23.80;;;13.27;;
14139;SDS011;7150;53.514;9.988;2023-04-10T06:03:06;25.60;;;14.37;;
14139;SDS011;7150;53.514;9.988;2023-04-10T06:05:31;25.07;;;13.73;;
14139;SDS011;7150;53.514;9.988;2023-04-10T06:07:57;24.33;;;13.13;;
14139;SDS011;7150;53.514;9.988;2023-04-10T06:10:22;21.97;;;12.57;;
14139;SDS011;7150;53.514;9.988;2023-04-10T06:12:48;26.40;;;13.97;;
14139;SDS011;7150;53.514;9.988;2023-04-10T06:15:13;26.23;;;15.10;;
14139;SDS011;7150;53.514;9.988;2023-04-10T06:17:42;25.23;;;14.50;;
14139;SDS011;7150;53.514;9.988;2023-04-10T06:20:08;21.00;;;12.57;;
14139;SDS011;7150;53.514;9.988;2023-04-10T06:22:34;26.57;;;13.87;;
14139;SDS011;7150;53.514;9.988;2023-04-10T06:25:00;25.90;;;14.37;;
14139;SDS011;7150;53.514;9.988;2023-04-10T06:27:26;23.63;;;14.20;;
14139;SDS011;7150;53.514;9.988;2023-04-10T06:29:52;25.23;;;13.80;;
14139;SDS011;7150;53.514;9.988;2023-04-10T06:32:18;23.83;;;14.33;;
14139;SDS011;7150;53.514;9.988;2023-04-10T06:34:43;27.83;;;14.40;;
14139;SDS011;7150;53.514;9.988;2023-04-10T06:37:10;23.87;;;14.17;;
14139;SDS011;7150;53.514;9.988;2023-04-10T06:39:35;25.47;;;14.50;;
14139;SDS011;7150;53.514;9.988;2023-04-10T06:42:01;24.43;;;12.77;;
14139;SDS011;7150;53.514;9.988;2023-04-10T06:44:27;23.07;;;14.00;;
14139;SDS011;7150;53.514;9.988;2023-04-10T06:46:53;26.10;;;14.33;;
14139;SDS011;7150;53.514;9.988;2023-04-10T06:49:18;26.67;;;15.40;;
14139;SDS011;7150;53.514;9.988;2023-04-10T06:51:44;25.50;;;14.00;;
14139;SDS011;7150;53.514;9.988;2023-04-10T06:54:12;23.33;;;13.63;;
14139;SDS011;7150;53.514;9.988;2023-04-10T06:56:37;26.37;;;14.90;;
14139;SDS011;7150;53.514;9.988;2023-04-10T06:59:03;28.67;;;15.63;;
14139;SDS011;7150;53.514;9.988;2023-04-10T07:01:28;25.20;;;15.10;;
14139;SDS011;7150;53.514;9.988;2023-04-10T07:03:54;23.03;;;13.47;;
14139;SDS011;7150;53.514;9.988;2023-04-10T07:06:20;28.70;;;15.00;;
14139;SDS011;7150;53.514;9.988;2023-04-10T07:08:47;26.27;;;14.33;;
14139;SDS011;7150;53.514;9.988;2023-04-10T07:11:13;25.87;;;14.93;;
14139;SDS011;7150;53.514;9.988;2023-04-10T07:13:38;24.17;;;14.33;;
14139;SDS011;7150;53.514;9.988;2023-04-10T07:16:04;25.50;;;15.10;;
14139;SDS011;7150;53.514;9.988;2023-04-10T07:18:32;22.60;;;13.47;;
14139;SDS011;7150;53.514;9.988;2023-04-10T07:20:59;24.30;;;13.63;;
14139;SDS011;7150;53.514;9.988;2023-04-10T07:23:24;21.00;;;14.07;;
14139;SDS011;7150;53.514;9.988;2023-04-10T07:25:50;21.63;;;13.73;;
14139;SDS011;7150;53.514;9.988;2023-04-10T07:28:16;25.37;;;14.00;;
14139;SDS011;7150;53.514;9.988;2023-04-10T07:30:42;24.10;;;13.97;;
14139;SDS011;7150;53.514;9.988;2023-04-10T07:33:07;23.30;;;14.13;;
14139;SDS011;7150;53.514;9.988;2023-04-10T07:35:33;22.33;;;14.03;;
14139;SDS011;7150;53.514;9.988;2023-04-10T07:38:00;19.53;;;12.37;;
14139;SDS011;7150;53.514;9.988;2023-04-10T07:40:25;23.63;;;13.63;;
14139;SDS011;7150;53.514;9.988;2023-04-10T07:42:51;20.43;;;13.07;;
14139;SDS011;7150;53.514;9.988;2023-04-10T07:45:16;20.77;;;12.33;;
14139;SDS011;7150;53.514;9.988;2023-04-10T07:47:42;22.20;;;13.07;;
14139;SDS011;7150;53.514;9.988;2023-04-10T07:50:07;21.73;;;12.97;;
14139;SDS011;7150;53.514;9.988;2023-04-10T07:52:33;23.87;;;12.57;;
14139;SDS011;7150;53.514;9.988;2023-04-10T07:55:02;20.13;;;11.97;;
14139;SDS011;7150;53.514;9.988;2023-04-10T07:57:28;19.67;;;12.20;;
14139;SDS011;7150;53.514;9.988;2023-04-10T07:59:53;24.63;;;14.17;;
14139;SDS011;7150;53.514;9.988;2023-04-10T08:02:19;22.43;;;12.87;;
14139;SDS011;7150;53.514;9.988;2023-04-10T08:04:45;22.83;;;12.03;;
14139;SDS011;7150;53.514;9.988;2023-04-10T08:07:10;20.27;;;12.30;;
14139;SDS011;7150;53.514;9.988;2023-04-10T08:09:36;18.53;;;11.80;;
14139;SDS011;7150;53.514;9.988;2023-04-10T08:12:02;21.53;;;12.80;;
14139;SDS011;7150;53.514;9.988;2023-04-10T08:14:27;22.70;;;12.73;;
14139;SDS011;7150;53.514;9.988;2023-04-10T08:16:53;19.10;;;11.93;;
14139;SDS011;7150;53.514;9.988;2023-04-10T08:19:18;19.83;;;12.03;;
14139;SDS011;7150;53.514;9.988;2023-04-10T08:21:44;21.23;;;12.67;;
14139;SDS011;7150;53.514;9.988;2023-04-10T08:24:09;16.00;;;10.83;;
14139;SDS011;7150;53.514;9.988;2023-04-10T08:26:35;18.23;;;10.40;;
14139;SDS011;7150;53.514;9.988;2023-04-10T08:29:00;17.77;;;11.00;;
14139;SDS011;7150;53.514;9.988;2023-04-10T08:31:26;18.20;;;11.30;;
14139;SDS011;7150;53.514;9.988;2023-04-10T08:33:53;18.20;;;10.73;;
14139;SDS011;7150;53.514;9.988;2023-04-10T08:36:18;15.87;;;10.90;;
14139;SDS011;7150;53.514;9.988;2023-04-10T08:38:44;16.63;;;10.67;;
14139;SDS011;7150;53.514;9.988;2023-04-10T08:41:11;16.20;;;10.20;;
14139;SDS011;7150;53.514;9.988;2023-04-10T08:43:38;16.60;;;10.23;;
14139;SDS011;7150;53.514;9.988;2023-04-10T08:46:03;14.73;;;10.03;;
14139;SDS011;7150;53.514;9.988;2023-04-10T08:48:44;14.77;;;10.13;;
14139;SDS011;7150;53.514;9.988;2023-04-10T08:51:13;16.00;;;9.47;;
14139;SDS011;7150;53.514;9.988;2023-04-10T08:53:43;18.83;;;11.40;;
14139;SDS011;7150;53.514;9.988;2023-04-10T08:56:13;15.00;;;9.00;;
14139;SDS011;7150;53.514;9.988;2023-04-10T08:58:41;13.93;;;8.83;;
14139;SDS011;7150;53.514;9.988;2023-04-10T09:01:08;14.07;;;8.93;;
14139;SDS011;7150;53.514;9.988;2023-04-10T09:03:34;11.53;;;7.70;;
14139;SDS011;7150;53.514;9.988;2023-04-10T09:06:03;13.77;;;9.37;;
14139;SDS011;7150;53.514;9.988;2023-04-10T09:08:29;15.20;;;9.57;;
14139;SDS011;7150;53.514;9.988;2023-04-10T09:10:56;14.00;;;8.97;;
14139;SDS011;7150;53.514;9.988;2023-04-10T09:13:34;12.47;;;8.47;;
14139;SDS011;7150;53.514;9.988;2023-04-10T09:16:12;13.73;;;8.73;;
14139;SDS011;7150;53.514;9.988;2023-04-10T09:18:45;13.93;;;9.20;;
14139;SDS011;7150;53.514;9.988;2023-04-10T09:21:12;11.77;;;7.93;;
14139;SDS011;7150;53.514;9.988;2023-04-10T09:23:40;11.97;;;8.17;;
14139;SDS011;7150;53.514;9.988;2023-04-10T09:26:21;11.87;;;8.70;;
14139;SDS011;7150;53.514;9.988;2023-04-10T09:29:00;12.13;;;7.73;;
14139;SDS011;7150;53.514;9.988;2023-04-10T09:31:31;9.77;;;7.27;;
14139;SDS011;7150;53.514;9.988;2023-04-10T09:34:07;12.53;;;8.40;;
14139;SDS011;7150;53.514;9.988;2023-04-10T09:36:54;15.63;;;8.70;;
14139;SDS011;7150;53.514;9.988;2023-04-10T09:39:21;13.10;;;9.33;;
14139;SDS011;7150;53.514;9.988;2023-04-10T09:41:56;10.37;;;7.10;;
14139;SDS011;7150;53.514;9.988;2023-04-10T09:47:19;11.20;;;7.63;;
14139;SDS011;7150;53.514;9.988;2023-04-10T09:52:23;13.50;;;8.00;;
14139;SDS011;7150;53.514;9.988;2023-04-10T09:54:53;10.87;;;7.20;;
14139;SDS011;7150;53.514;9.988;2023-04-10T09:57:20;9.57;;;7.27;;
14139;SDS011;7150;53.514;9.988;2023-04-10T09:59:51;10.43;;;6.70;;
14139;SDS011;7150;53.514;9.988;2023-04-10T10:02:18;10.87;;;7.27;;
14139;SDS011;7150;53.514;9.988;2023-04-10T10:04:45;10.70;;;7.50;;
14139;SDS011;7150;53.514;9.988;2023-04-10T10:07:13;10.13;;;7.00;;
14139;SDS011;7150;53.514;9.988;2023-04-10T10:09:44;10.17;;;6.90;;
14139;SDS011;7150;53.514;9.988;2023-04-10T10:12:15;10.43;;;6.67;;
14139;SDS011;7150;53.514;9.988;2023-04-10T10:15:06;9.23;;;7.20;;
14139;SDS011;7150;53.514;9.988;2023-04-10T10:17:42;10.03;;;6.67;;
14139;SDS011;7150;53.514;9.988;2023-04-10T10:20:17;9.97;;;6.83;;
14139;SDS011;7150;53.514;9.988;2023-04-10T10:22:46;8.57;;;6.43;;
14139;SDS011;7150;53.514;9.988;2023-04-10T10:25:13;9.00;;;6.43;;
14139;SDS011;7150;53.514;9.988;2023-04-10T10:27:39;8.10;;;5.50;;
14139;SDS011;7150;53.514;9.988;2023-04-10T10:30:06;8.73;;;5.67;;
14139;SDS011;7150;53.514;9.988;2023-04-10T10:32:34;6.93;;;5.50;;
14139;SDS011;7150;53.514;9.988;2023-04-10T10:35:01;7.53;;;5.50;;
14139;SDS011;7150;53.514;9.988;2023-04-10T10:37:31;7.07;;;4.90;;
14139;SDS011;7150;53.514;9.988;2023-04-10T10:42:35;6.93;;;5.30;;
14139;SDS011;7150;53.514;9.988;2023-04-10T10:47:49;5.90;;;4.70;;
14139;SDS011;7150;53.514;9.988;2023-04-10T10:50:17;10.13;;;5.20;;
14139;SDS011;7150;53.514;9.988;2023-04-10T10:52:46;5.50;;;4.50;;
14139;SDS011;7150;53.514;9.988;2023-04-10T11:00:16;8.07;;;5.00;;
14139;SDS011;7150;53.514;9.988;2023-04-10T11:02:42;5.20;;;4.33;;
14139;SDS011;7150;53.514;9.988;2023-04-10T11:05:08;6.40;;;4.87;;
14139;SDS011;7150;53.514;9.988;2023-04-10T11:13:31;6.50;;;4.43;;
14139;SDS011;7150;53.514;9.988;2023-04-10T11:15:58;7.30;;;4.43;;
14139;SDS011;7150;53.514;9.988;2023-04-10T11:26:34;5.23;;;3.97;;
14139;SDS011;7150;53.514;9.988;2023-04-10T11:29:04;5.73;;;4.37;;
14139;SDS011;7150;53.514;9.988;2023-04-10T11:31:31;6.07;;;3.53;;
14139;SDS011;7150;53.514;9.988;2023-04-10T11:34:01;4.63;;;3.80;;
14139;SDS011;7150;53.514;9.988;2023-04-10T11:36:28;4.90;;;3.87;;
14139;SDS011;7150;53.514;9.988;2023-04-10T11:38:58;6.60;;;4.23;;
14139;SDS011;7150;53.514;9.988;2023-04-10T11:41:27;6.23;;;4.47;;
14139;SDS011;7150;53.514;9.988;2023-04-10T11:43:54;6.30;;;4.40;;
14139;SDS011;7150;53.514;9.988;2023-04-10T11:46:21;4.67;;;3.87;;
14139;SDS011;7150;53.514;9.988;2023-04-10T11:48:46;5.67;;;3.30;;
14139;SDS011;7150;53.514;9.988;2023-04-10T11:51:16;4.77;;;3.90;;
14139;SDS011;7150;53.514;9.988;2023-04-10T11:53:41;5.40;;;3.80;;
14139;SDS011;7150;53.514;9.988;2023-04-10T11:56:17;4.93;;;3.87;;
14139;SDS011;7150;53.514;9.988;2023-04-10T11:58:46;4.87;;;3.40;;
14139;SDS011;7150;53.514;9.988;2023-04-10T12:01:13;5.27;;;3.87;;
14139;SDS011;7150;53.514;9.988;2023-04-10T12:03:40;6.30;;;4.43;;
14139;SDS011;7150;53.514;9.988;2023-04-10T12:06:10;6.87;;;4.53;;
14139;SDS011;7150;53.514;9.988;2023-04-10T12:08:38;5.37;;;3.70;;
14139;SDS011;7150;53.514;9.988;2023-04-10T12:11:05;5.37;;;3.77;;
14139;SDS011;7150;53.514;9.988;2023-04-10T12:13:31;5.80;;;3.87;;
14139;SDS011;7150;53.514;9.988;2023-04-10T12:15:58;4.53;;;3.93;;
14139;SDS011;7150;53.514;9.988;2023-04-10T12:18:26;5.90;;;3.70;;
14139;SDS011;7150;53.514;9.988;2023-04-10T12:20:53;5.87;;;4.07;;
14139;SDS011;7150;53.514;9.988;2023-04-10T12:23:21;4.87;;;3.50;;
14139;SDS011;7150;53.514;9.988;2023-04-10T12:25:48;5.60;;;4.00;;
14139;SDS011;7150;53.514;9.988;2023-04-10T12:28:18;4.60;;;3.87;;
14139;SDS011;7150;53.514;9.988;2023-04-10T12:30:48;5.73;;;4.20;;
14139;SDS011;7150;53.514;9.988;2023-04-10T12:33:21;4.50;;;3.43;;
14139;SDS011;7150;53.514;9.988;2023-04-10T12:35:47;4.43;;;3.60;;
14139;SDS011;7150;53.514;9.988;2023-04-10T12:38:13;4.67;;;3.53;;
14139;SDS011;7150;53.514;9.988;2023-04-10T12:40:56;4.07;;;2.97;;
14139;SDS011;7150;53.514;9.988;2023-04-10T12:46:24;4.70;;;3.40;;
14139;SDS011;7150;53.514;9.988;2023-04-10T12:48:51;4.57;;;3.50;;
14139;SDS011;7150;53.514;9.988;2023-04-10T12:51:17;4.60;;;2.83;;
14139;SDS011;7150;53.514;9.988;2023-04-10T12:53:43;4.03;;;2.43;;
14139;SDS011;7150;53.514;9.988;2023-04-10T12:56:09;3.33;;;2.63;;
14139;SDS011;7150;53.514;9.988;2023-04-10T12:58:37;4.13;;;3.00;;
14139;SDS011;7150;53.514;9.988;2023-04-10T13:01:04;5.17;;;3.37;;
14139;SDS011;7150;53.514;9.988;2023-04-10T13:03:34;7.23;;;3.07;;
14139;SDS011;7150;53.514;9.988;2023-04-10T13:06:05;3.43;;;3.00;;
14139;SDS011;7150;53.514;9.988;2023-04-10T13:08:31;5.50;;;3.60;;
14139;SDS011;7150;53.514;9.988;2023-04-10T13:10:57;3.30;;;2.90;;
14139;SDS011;7150;53.514;9.988;2023-04-10T13:13:27;4.57;;;3.23;;
14139;SDS011;7150;53.514;9.988;2023-04-10T13:15:53;4.30;;;2.93;;
14139;SDS011;7150;53.514;9.988;2023-04-10T13:18:19;3.87;;;3.10;;
14139;SDS011;7150;53.514;9.988;2023-04-10T13:20:45;3.10;;;2.77;;
14139;SDS011;7150;53.514;9.988;2023-04-10T13:23:10;3.53;;;2.90;;
14139;SDS011;7150;53.514;9.988;2023-04-10T13:25:37;5.07;;;3.23;;
14139;SDS011;7150;53.514;9.988;2023-04-10T13:28:04;4.03;;;2.87;;
14139;SDS011;7150;53.514;9.988;2023-04-10T13:30:34;3.77;;;3.00;;
14139;SDS011;7150;53.514;9.988;2023-04-10T13:32:59;3.37;;;2.80;;
14139;SDS011;7150;53.514;9.988;2023-04-10T13:35:25;3.57;;;2.90;;
14139;SDS011;7150;53.514;9.988;2023-04-10T13:37:50;4.37;;;2.70;;
14139;SDS011;7150;53.514;9.988;2023-04-10T13:40:18;5.67;;;3.13;;
14139;SDS011;7150;53.514;9.988;2023-04-10T13:42:44;4.40;;;3.30;;
14139;SDS011;7150;53.514;9.988;2023-04-10T13:45:10;4.37;;;3.10;;
14139;SDS011;7150;53.514;9.988;2023-04-10T13:47:35;4.90;;;3.67;;
14139;SDS011;7150;53.514;9.988;2023-04-10T13:50:01;4.27;;;3.50;;
14139;SDS011;7150;53.514;9.988;2023-04-10T13:52:26;4.43;;;3.33;;
14139;SDS011;7150;53.514;9.988;2023-04-10T13:54:52;3.77;;;3.00;;
14139;SDS011;7150;53.514;9.988;2023-04-10T13:57:17;4.60;;;3.33;;
14139;SDS011;7150;53.514;9.988;2023-04-10T13:59:43;4.87;;;3.37;;
14139;SDS011;7150;53.514;9.988;2023-04-10T14:02:08;5.60;;;3.83;;
14139;SDS011;7150;53.514;9.988;2023-04-10T14:04:34;3.87;;;2.97;;
14139;SDS011;7150;53.514;9.988;2023-04-10T14:07:00;4.53;;;3.50;;
14139;SDS011;7150;53.514;9.988;2023-04-10T14:09:26;4.47;;;3.53;;
14139;SDS011;7150;53.514;9.988;2023-04-10T14:11:52;5.30;;;3.80;;
14139;SDS011;7150;53.514;9.988;2023-04-10T14:14:18;5.10;;;3.50;;
14139;SDS011;7150;53.514;9.988;2023-04-10T14:16:44;6.30;;;3.77;;
14139;SDS011;7150;53.514;9.988;2023-04-10T14:19:10;5.10;;;3.77;;
14139;SDS011;7150;53.514;9.988;2023-04-10T14:21:35;4.67;;;3.67;;
14139;SDS011;7150;53.514;9.988;2023-04-10T14:24:01;5.53;;;3.90;;
14139;SDS011;7150;53.514;9.988;2023-04-10T14:26:26;5.03;;;3.70;;
14139;SDS011;7150;53.514;9.988;2023-04-10T14:28:52;9.00;;;4.17;;
14139;SDS011;7150;53.514;9.988;2023-04-10T14:31:18;6.77;;;3.57;;
14139;SDS011;7150;53.514;9.988;2023-04-10T14:33:44;4.50;;;3.47;;
14139;SDS011;7150;53.514;9.988;2023-04-10T14:36:09;4.67;;;3.30;;
14139;SDS011;7150;53.514;9.988;2023-04-10T14:38:35;5.73;;;4.73;;
14139;SDS011;7150;53.514;9.988;2023-04-10T14:41:03;6.83;;;4.60;;
14139;SDS011;7150;53.514;9.988;2023-04-10T14:43:29;6.20;;;4.50;;
14139;SDS011;7150;53.514;9.988;2023-04-10T14:45:55;5.23;;;3.73;;
14139;SDS011;7150;53.514;9.988;2023-04-10T14:48:20;6.73;;;4.27;;
14139;SDS011;7150;53.514;9.988;2023-04-10T14:50:46;5.77;;;3.87;;
14139;SDS011;7150;53.514;9.988;2023-04-10T14:53:13;5.47;;;4.13;;
14139;SDS011;7150;53.514;9.988;2023-04-10T14:55:39;5.43;;;4.03;;
14139;SDS011;7150;53.514;9.988;2023-04-10T14:58:04;5.37;;;4.00;;
14139;SDS011;7150;53.514;9.988;2023-04-10T15:00:32;4.00;;;3.57;;
14139;SDS011;7150;53.514;9.988;2023-04-10T15:02:58;5.37;;;4.13;;
14139;SDS011;7150;53.514;9.988;2023-04-10T15:05:24;3.93;;;3.50;;
14139;SDS011;7150;53.514;9.988;2023-04-10T15:07:51;4.47;;;3.57;;
14139;SDS011;7150;53.514;9.988;2023-04-10T15:10:16;4.10;;;3.40;;
14139;SDS011;7150;53.514;9.988;2023-04-10T15:12:42;4.07;;;3.57;;
14139;SDS011;7150;53.514;9.988;2023-04-10T15:15:08;4.37;;;3.80;;
14139;SDS011;7150;53.514;9.988;2023-04-10T15:17:34;5.07;;;4.03;;
14139;SDS011;7150;53.514;9.988;2023-04-10T15:19:59;8.33;;;3.83;;
14139;SDS011;7150;53.514;9.988;2023-04-10T15:22:25;4.70;;;3.20;;